Terminal Aerodrome Forecast
Issued by NWS Louisville, KY

Home | Current Version | Previous Version | Text Only | Print | Product List | Glossary On
Versions: 1 2 3 4 5 6 7 8 9 10 11 12 13 14 15 16 17 18 19
000
FTUS43 KLMK 290500
TAFBWG
TAF
KBWG 290520Z 2906/3006 VRB03KT 4SM BR SCT250
      TEMPO 2907/2909 2SM BR
     FM290900 00000KT 2SM BR SCT250
      TEMPO 2910/2913 1SM BR BKN005
     FM291400 18004KT 4SM BR FEW030 SCT250
     FM291600 19007KT P6SM SCT250=

USA.gov is the U.S. government's official web portal to all federal, state and local government web resources and services.